createdAt,value
2022-11-25T00:01:23.692Z,45.47
2022-11-25T00:03:52.483Z,46.17
2022-11-25T00:06:31.448Z,49.07
2022-11-25T00:09:03.078Z,56.13
2022-11-25T00:11:30.213Z,42.83
2022-11-25T00:13:58.178Z,47.77
2022-11-25T00:16:26.677Z,44.83
2022-11-25T00:18:55.845Z,42.47
2022-11-25T00:21:25.100Z,52.83
2022-11-25T00:24:03.614Z,40.37
2022-11-25T00:26:32.894Z,42.43
2022-11-25T00:29:02.597Z,42.23
2022-11-25T00:31:32.607Z,39.03
2022-11-25T00:33:59.709Z,40.13
2022-11-25T00:36:32.232Z,38.30
2022-11-25T00:39:14.739Z,42.53
2022-11-25T00:42:01.699Z,43.50
2022-11-25T00:44:41.700Z,35.33
2022-11-25T00:47:12.373Z,44.57
2022-11-25T00:49:41.560Z,44.33
2022-11-25T00:52:11.175Z,39.27
2022-11-25T00:54:38.407Z,36.57
2022-11-25T00:57:05.604Z,38.00
2022-11-25T00:59:32.648Z,32.23
2022-11-25T01:02:00.130Z,35.03
2022-11-25T01:04:27.213Z,41.43
2022-11-25T01:06:56.821Z,43.23
2022-11-25T01:09:24.265Z,41.37
2022-11-25T01:11:51.661Z,35.47
2022-11-25T01:14:20.342Z,36.80
2022-11-25T01:16:48.645Z,40.33
2022-11-25T01:19:16.255Z,43.13
2022-11-25T01:21:43.495Z,38.10
2022-11-25T01:24:14.562Z,37.80
2022-11-25T01:26:42.189Z,35.80
2022-11-25T01:29:15.347Z,40.43
2022-11-25T01:31:43.239Z,44.20
2022-11-25T01:34:14.949Z,45.40
2022-11-25T01:36:42.300Z,40.13
2022-11-25T01:39:13.544Z,41.40
2022-11-25T01:41:40.529Z,43.13
2022-11-25T01:44:16.508Z,42.17
2022-11-25T01:47:02.395Z,37.57
2022-11-25T01:49:54.390Z,36.07
2022-11-25T01:52:32.736Z,40.03
2022-11-25T01:55:06.844Z,48.97
2022-11-25T01:57:57.139Z,47.93
2022-11-25T02:00:25.611Z,37.60
2022-11-25T02:02:54.833Z,42.50
2022-11-25T02:06:03.454Z,40.70
2022-11-25T02:08:32.232Z,49.27
2022-11-25T02:11:01.841Z,48.07
2022-11-25T02:13:29.203Z,52.93
2022-11-25T02:15:56.339Z,55.17
2022-11-25T02:18:26.309Z,60.83
2022-11-25T02:20:53.687Z,61.03
2022-11-25T02:24:08.388Z,52.53
2022-11-25T02:26:35.808Z,44.57
2022-11-25T02:29:02.922Z,48.90
2022-11-25T02:31:30.418Z,47.57
2022-11-25T02:33:57.820Z,41.67
2022-11-25T02:36:24.915Z,46.40
2022-11-25T02:39:00.827Z,41.07
2022-11-25T02:41:45.256Z,49.27
2022-11-25T02:44:12.525Z,53.77
2022-11-25T02:46:39.946Z,43.50
2022-11-25T02:49:09.577Z,44.57
2022-11-25T02:51:39.156Z,46.43
2022-11-25T02:54:06.867Z,65.53
2022-11-25T02:56:36.149Z,44.10
2022-11-25T02:59:04.082Z,48.10
2022-11-25T03:01:32.029Z,76.20
2022-11-25T03:04:00.122Z,55.70
2022-11-25T03:06:28.981Z,59.80
2022-11-25T03:08:56.402Z,55.27
2022-11-25T03:11:46.535Z,111.13
2022-11-25T03:14:14.726Z,41.33
2022-11-25T03:16:43.105Z,40.17
2022-11-25T03:19:10.554Z,39.43
2022-11-25T03:21:37.999Z,47.40
2022-11-25T03:24:05.354Z,42.43
2022-11-25T03:26:32.350Z,61.07
2022-11-25T03:28:59.362Z,48.13
2022-11-25T03:31:27.365Z,89.60
2022-11-25T03:33:55.980Z,78.80
2022-11-25T03:36:23.083Z,66.33
2022-11-25T03:38:50.151Z,77.27
2022-11-25T03:41:18.028Z,62.10
2022-11-25T03:43:46.110Z,71.77
2022-11-25T03:46:13.304Z,50.03
2022-11-25T03:48:40.592Z,35.10
2022-11-25T03:51:08.469Z,40.80
2022-11-25T03:53:35.808Z,46.40
2022-11-25T03:56:05.883Z,52.20
2022-11-25T03:58:32.902Z,42.67
2022-11-25T04:01:04.389Z,46.10
2022-11-25T04:03:31.824Z,42.37
2022-11-25T04:05:59.380Z,40.43
2022-11-25T04:08:27.424Z,37.80
2022-11-25T04:10:55.195Z,43.43
2022-11-25T04:13:25.076Z,38.00
2022-11-25T04:15:52.758Z,47.80
2022-11-25T04:18:21.112Z,55.27
2022-11-25T04:20:52.011Z,38.60
2022-11-25T04:23:19.066Z,37.23
2022-11-25T04:25:55.177Z,34.97
2022-11-25T04:28:27.807Z,41.63
2022-11-25T04:30:55.232Z,87.63
2022-11-25T04:33:22.282Z,72.50
2022-11-25T04:35:49.315Z,55.80
2022-11-25T04:38:16.811Z,59.57
2022-11-25T04:40:43.927Z,108.53
2022-11-25T04:43:13.913Z,128.33
2022-11-25T04:46:12.917Z,71.03
2022-11-25T04:48:36.634Z,66.43
2022-11-25T04:51:04.394Z,94.20
2022-11-25T04:53:32.182Z,83.17
2022-11-25T04:55:59.207Z,83.10
2022-11-25T04:58:45.025Z,113.43
2022-11-25T05:01:13.097Z,108.10
2022-11-25T05:03:49.631Z,114.50
2022-11-25T05:06:19.664Z,74.90
2022-11-25T05:08:51.555Z,177.97
2022-11-25T05:11:19.933Z,79.50
2022-11-25T05:13:47.362Z,99.10
2022-11-25T05:16:14.727Z,95.53
2022-11-25T05:18:41.774Z,60.20
2022-11-25T05:21:08.817Z,164.20
2022-11-25T05:23:40.512Z,102.87
2022-11-25T05:26:07.675Z,97.20
2022-11-25T05:28:43.467Z,84.93
2022-11-25T05:31:12.670Z,64.20
2022-11-25T05:33:39.842Z,54.33
2022-11-25T05:36:10.390Z,61.63
2022-11-25T05:38:46.255Z,72.13
2022-11-25T05:41:18.855Z,81.07
2022-11-25T05:43:47.617Z,48.17
2022-11-25T05:46:15.101Z,49.70
2022-11-25T05:48:54.207Z,46.73
2022-11-25T05:51:22.020Z,67.90
2022-11-25T05:53:50.959Z,71.17
2022-11-25T05:56:20.422Z,85.23
2022-11-25T05:59:22.432Z,60.73
2022-11-25T06:02:02.969Z,63.93
2022-11-25T06:04:31.217Z,67.70
2022-11-25T06:06:58.370Z,142.73
2022-11-25T06:09:25.528Z,131.13
2022-11-25T06:11:52.686Z,53.30
2022-11-25T06:14:19.832Z,41.13
2022-11-25T06:16:49.640Z,38.17
2022-11-25T06:19:24.305Z,48.13
2022-11-25T06:21:51.323Z,39.30
2022-11-25T06:24:18.567Z,39.80
2022-11-25T06:26:47.235Z,43.80
2022-11-25T06:29:14.261Z,39.90
2022-11-25T06:31:45.649Z,50.53
2022-11-25T06:34:36.616Z,52.03
2022-11-25T06:37:14.303Z,51.90
2022-11-25T06:39:41.293Z,46.53
2022-11-25T06:42:08.283Z,43.60
2022-11-25T06:44:35.480Z,44.57
2022-11-25T06:47:02.690Z,51.50
2022-11-25T06:49:29.790Z,50.20
2022-11-25T06:51:56.798Z,51.63
2022-11-25T06:54:24.139Z,52.93
2022-11-25T06:56:53.731Z,49.60
2022-11-25T06:59:21.736Z,52.90
2022-11-25T07:01:48.847Z,55.27
2022-11-25T07:04:15.925Z,49.73
2022-11-25T07:06:42.911Z,58.80
2022-11-25T07:09:09.874Z,55.90
2022-11-25T07:11:39.455Z,51.30
2022-11-25T07:14:10.878Z,55.33
2022-11-25T07:16:39.910Z,63.77
2022-11-25T07:19:07.683Z,59.13
2022-11-25T07:21:36.494Z,58.13
2022-11-25T07:24:05.994Z,68.27
2022-11-25T07:26:35.688Z,68.27
2022-11-25T07:29:06.385Z,69.03
2022-11-25T07:31:40.645Z,99.67
2022-11-25T07:34:15.323Z,63.73
2022-11-25T07:36:42.329Z,65.70
2022-11-25T07:39:13.239Z,96.77
2022-11-25T07:41:43.455Z,67.07
2022-11-25T07:44:14.092Z,61.60
2022-11-25T07:46:51.127Z,102.20
2022-11-25T07:49:21.880Z,66.57
2022-11-25T07:51:54.553Z,97.30
2022-11-25T07:54:22.762Z,104.73
2022-11-25T07:56:50.846Z,63.20
2022-11-25T07:59:20.645Z,74.67
2022-11-25T08:01:53.482Z,124.00
2022-11-25T08:04:21.282Z,70.73
2022-11-25T08:06:50.661Z,84.57
2022-11-25T08:09:20.780Z,109.37
2022-11-25T08:11:48.680Z,108.47
2022-11-25T08:14:16.415Z,79.07
2022-11-25T08:16:44.258Z,64.13
2022-11-25T08:19:14.633Z,64.70
2022-11-25T08:21:42.498Z,62.90
2022-11-25T08:24:16.133Z,56.63
2022-11-25T08:26:43.439Z,58.93
2022-11-25T08:29:14.402Z,55.53
2022-11-25T08:31:42.728Z,57.57
2022-11-25T08:34:16.205Z,55.93
2022-11-25T08:36:47.996Z,56.47
2022-11-25T08:42:04.623Z,49.03
2022-11-25T08:44:31.840Z,49.13
2022-11-25T08:46:58.910Z,50.93
2022-11-25T08:49:27.090Z,49.10
2022-11-25T08:51:54.126Z,50.63
2022-11-25T08:54:21.233Z,50.73
2022-11-25T08:56:48.218Z,55.23
2022-11-25T08:59:15.185Z,61.27
2022-11-25T09:01:42.290Z,61.67
2022-11-25T09:04:09.481Z,65.87
2022-11-25T09:06:36.477Z,60.83
2022-11-25T09:09:06.054Z,61.83
2022-11-25T09:11:33.356Z,58.03
2022-11-25T09:14:00.464Z,54.17
2022-11-25T09:16:28.456Z,57.57
2022-11-25T09:18:56.350Z,50.47
2022-11-25T09:21:25.207Z,52.20
2022-11-25T09:23:54.151Z,50.57
2022-11-25T09:26:27.715Z,48.93
2022-11-25T09:28:55.448Z,52.20
2022-11-25T09:31:23.964Z,44.90
2022-11-25T09:33:51.621Z,46.47
2022-11-25T09:36:20.402Z,40.70
2022-11-25T09:38:47.692Z,43.57
2022-11-25T09:41:51.702Z,44.17
2022-11-25T09:45:12.272Z,42.07
2022-11-25T09:47:46.860Z,45.47
2022-11-25T09:50:31.369Z,41.10
2022-11-25T09:53:19.337Z,38.93
2022-11-25T09:55:49.847Z,45.97
2022-11-25T09:58:39.582Z,48.13
2022-11-25T10:01:14.148Z,45.97
2022-11-25T10:03:46.342Z,53.50
2022-11-25T10:06:20.227Z,47.57
2022-11-25T10:08:53.155Z,48.87
2022-11-25T10:11:28.286Z,44.90
2022-11-25T10:13:58.590Z,46.00
2022-11-25T10:17:03.228Z,44.87
2022-11-25T10:20:12.462Z,44.30
2022-11-25T10:22:45.445Z,45.43
2022-11-25T10:25:15.530Z,46.23
2022-11-25T10:28:01.918Z,42.57
2022-11-25T10:30:57.582Z,43.77
2022-11-25T10:33:36.520Z,52.07
2022-11-25T10:36:28.771Z,55.40
2022-11-25T10:39:07.360Z,48.20
2022-11-25T10:41:44.239Z,49.70
2022-11-25T10:44:24.216Z,49.47
2022-11-25T10:47:18.584Z,50.40
2022-11-25T10:50:08.403Z,51.77
2022-11-25T10:52:46.690Z,54.97
2022-11-25T10:55:17.226Z,50.10
2022-11-25T10:57:44.744Z,48.63
2022-11-25T11:00:31.725Z,48.33
2022-11-25T11:03:12.703Z,42.13
2022-11-25T11:05:47.259Z,33.37
2022-11-25T11:08:28.465Z,38.90
2022-11-25T11:11:31.164Z,36.93
2022-11-25T11:14:12.720Z,38.23
2022-11-25T11:16:45.616Z,41.20
2022-11-25T11:19:41.740Z,39.53
2022-11-25T11:22:16.991Z,38.57
2022-11-25T11:24:44.038Z,36.53
2022-11-25T11:27:21.774Z,36.37
2022-11-25T11:30:07.824Z,41.37
2022-11-25T11:32:35.250Z,46.93
2022-11-25T11:35:13.622Z,43.77
2022-11-25T11:37:47.512Z,41.80
2022-11-25T11:40:26.459Z,40.47
2022-11-25T11:43:12.477Z,38.53
2022-11-25T11:45:54.220Z,41.87
2022-11-25T11:48:26.377Z,42.73
2022-11-25T11:51:29.009Z,42.80
2022-11-25T11:54:10.807Z,38.60
2022-11-25T11:56:55.292Z,41.67
2022-11-25T11:59:28.386Z,42.87
2022-11-25T12:02:16.726Z,38.07
2022-11-25T12:04:55.557Z,39.63
2022-11-25T12:07:37.948Z,37.93
2022-11-25T12:10:43.570Z,33.53
2022-11-25T12:13:19.512Z,33.30
2022-11-25T12:15:46.484Z,31.97
2022-11-25T12:18:20.082Z,35.40
2022-11-25T12:21:09.682Z,28.20
2022-11-25T12:23:44.368Z,29.47
2022-11-25T12:26:19.837Z,30.10
2022-11-25T12:28:58.069Z,24.70
2022-11-25T12:31:27.740Z,26.80
2022-11-25T12:33:54.800Z,26.90
2022-11-25T12:36:44.137Z,24.93
2022-11-25T12:39:41.151Z,27.90
2022-11-25T12:42:23.495Z,24.40
2022-11-25T12:44:58.303Z,24.27
2022-11-25T12:47:26.335Z,27.70
2022-11-25T12:49:55.330Z,29.73
2022-11-25T12:52:50.791Z,24.73
2022-11-25T12:55:27.952Z,23.87
2022-11-25T12:58:28.440Z,24.30
2022-11-25T13:01:30.606Z,22.90
2022-11-25T13:04:32.475Z,24.20
2022-11-25T13:07:29.967Z,25.50
2022-11-25T13:10:26.108Z,23.63
2022-11-25T13:13:25.836Z,27.03
2022-11-25T13:15:55.424Z,21.80
2022-11-25T13:18:27.215Z,27.87
2022-11-25T13:20:55.355Z,21.40
2022-11-25T13:23:28.359Z,23.27
2022-11-25T13:26:32.398Z,24.37
2022-11-25T13:29:01.040Z,24.50
2022-11-25T13:31:33.705Z,21.73
2022-11-25T13:34:28.802Z,25.83
2022-11-25T13:37:01.457Z,22.50
2022-11-25T13:39:37.358Z,20.87
2022-11-25T13:42:26.023Z,20.90
2022-11-25T13:44:58.098Z,21.87
2022-11-25T13:47:28.254Z,22.00
2022-11-25T13:49:58.712Z,19.47
2022-11-25T13:52:39.593Z,24.13
2022-11-25T13:55:37.457Z,24.37
2022-11-25T13:58:04.449Z,21.87
2022-11-25T14:00:34.430Z,21.23
2022-11-25T14:03:19.852Z,22.40
2022-11-25T14:06:12.489Z,25.03
2022-11-25T14:09:02.983Z,25.93
2022-11-25T14:11:53.075Z,24.33
2022-11-25T14:14:38.608Z,24.80
2022-11-25T14:17:43.848Z,22.80
2022-11-25T14:20:33.793Z,26.23
2022-11-25T14:23:22.374Z,24.93
2022-11-25T14:26:01.602Z,24.20
2022-11-25T14:28:35.288Z,22.27
2022-11-25T14:31:10.198Z,24.37
2022-11-25T14:33:48.493Z,27.53
2022-11-25T14:36:21.862Z,27.07
2022-11-25T14:39:02.138Z,21.20
2022-11-25T14:41:58.987Z,22.30
2022-11-25T14:44:32.909Z,29.43
2022-11-25T14:47:04.881Z,27.23
2022-11-25T14:49:59.601Z,24.53
2022-11-25T14:52:36.523Z,24.33
2022-11-25T14:55:05.856Z,25.37
2022-11-25T14:57:36.169Z,23.40
2022-11-25T15:00:08.953Z,23.63
2022-11-25T15:02:40.079Z,23.23
2022-11-25T15:05:23.117Z,24.37
2022-11-25T15:08:03.216Z,22.87
2022-11-25T15:10:30.345Z,25.30
2022-11-25T15:12:59.185Z,25.50
2022-11-25T15:15:27.742Z,28.17
2022-11-25T15:17:55.344Z,23.93
2022-11-25T15:20:24.925Z,23.13
2022-11-25T15:22:53.985Z,19.80
2022-11-25T15:25:21.135Z,25.23
2022-11-25T15:27:52.345Z,23.30
2022-11-25T15:30:19.920Z,21.00
2022-11-25T15:32:47.632Z,24.93
2022-11-25T15:35:23.550Z,23.13
2022-11-25T15:37:51.105Z,23.80
2022-11-25T15:40:44.345Z,24.50
2022-11-25T15:43:27.342Z,24.07
2022-11-25T15:46:01.983Z,23.17
2022-11-25T15:48:46.238Z,25.93
2022-11-25T15:51:13.242Z,24.93
2022-11-25T15:53:40.358Z,26.40
2022-11-25T15:56:11.107Z,27.10
2022-11-25T15:58:42.678Z,27.73
2022-11-25T16:01:16.007Z,25.43
2022-11-25T16:03:44.435Z,26.97
2022-11-25T16:06:20.939Z,27.90
2022-11-25T16:08:56.414Z,28.70
2022-11-25T16:11:25.678Z,26.80
2022-11-25T16:13:53.990Z,33.17
2022-11-25T16:16:25.338Z,24.10
2022-11-25T16:19:10.127Z,29.87
2022-11-25T16:21:40.105Z,31.53
2022-11-25T16:24:07.109Z,28.03
2022-11-25T16:26:38.491Z,29.90
2022-11-25T16:29:17.328Z,31.37
2022-11-25T16:31:44.479Z,31.17
2022-11-25T16:34:17.832Z,41.97
2022-11-25T16:36:44.907Z,36.50
2022-11-25T16:39:12.053Z,29.50
2022-11-25T16:41:40.566Z,32.63
2022-11-25T16:44:19.299Z,31.97
2022-11-25T16:46:46.283Z,33.27
2022-11-25T16:49:17.990Z,35.80
2022-11-25T16:51:45.664Z,41.20
2022-11-25T16:54:12.899Z,36.47
2022-11-25T16:56:41.889Z,40.77
2022-11-25T16:59:29.309Z,39.00
2022-11-25T17:01:56.800Z,40.17
2022-11-25T17:04:24.010Z,49.60
2022-11-25T17:07:24.171Z,43.00
2022-11-25T17:09:38.203Z,43.57
2022-11-25T17:12:07.622Z,45.53
2022-11-25T17:14:35.955Z,48.37
2022-11-25T17:17:07.055Z,45.13
2022-11-25T17:19:34.318Z,46.27
2022-11-25T17:22:01.377Z,37.67
2022-11-25T17:24:28.500Z,42.40
2022-11-25T17:26:57.283Z,39.50
2022-11-25T17:29:35.816Z,42.87
2022-11-25T17:32:04.429Z,49.13
2022-11-25T17:34:37.850Z,36.77
2022-11-25T17:37:18.424Z,38.40
2022-11-25T17:39:45.463Z,40.90
2022-11-25T17:42:15.930Z,45.77
2022-11-25T17:44:44.255Z,46.00
2022-11-25T17:47:13.957Z,46.43
2022-11-25T17:49:41.075Z,48.13
2022-11-25T17:52:08.986Z,46.37
2022-11-25T17:54:36.366Z,45.00
2022-11-25T17:57:05.321Z,46.97
2022-11-25T17:59:33.928Z,52.33
2022-11-25T18:02:01.231Z,52.70
2022-11-25T18:04:32.383Z,49.07
2022-11-25T18:06:59.390Z,55.57
2022-11-25T18:09:26.766Z,49.03
2022-11-25T18:11:56.793Z,53.70
2022-11-25T18:14:32.183Z,50.57
2022-11-25T18:17:05.646Z,50.50
2022-11-25T18:19:34.528Z,52.50
2022-11-25T18:22:12.299Z,55.73
2022-11-25T18:24:39.714Z,57.30
2022-11-25T18:27:10.894Z,48.10
2022-11-25T18:29:38.065Z,51.73
2022-11-25T18:32:05.399Z,50.57
2022-11-25T18:34:32.679Z,51.27
2022-11-25T18:36:59.721Z,44.67
2022-11-25T18:39:26.818Z,50.20
2022-11-25T18:41:58.181Z,53.97
2022-11-25T18:44:27.992Z,48.73
2022-11-25T18:46:55.519Z,44.80
2022-11-25T18:49:23.786Z,47.23
2022-11-25T18:51:50.886Z,42.17
2022-11-25T18:54:17.860Z,44.97
2022-11-25T18:56:51.930Z,44.40
2022-11-25T18:59:28.142Z,45.83
2022-11-25T19:01:55.806Z,50.23
2022-11-25T19:04:23.005Z,45.97
2022-11-25T19:06:50.098Z,48.60
2022-11-25T19:09:17.472Z,48.43
2022-11-25T19:11:53.863Z,49.23
2022-11-25T19:14:24.023Z,48.97
2022-11-25T19:16:51.167Z,52.60
2022-11-25T19:19:18.345Z,55.17
2022-11-25T19:21:45.410Z,52.47
2022-11-25T19:24:14.408Z,54.40
2022-11-25T19:26:45.355Z,58.53
2022-11-25T19:29:20.945Z,60.83
2022-11-25T19:31:49.735Z,62.80
2022-11-25T19:34:33.732Z,53.90
2022-11-25T19:37:00.762Z,60.97
2022-11-25T19:39:28.307Z,51.67
2022-11-25T19:41:55.241Z,58.33
2022-11-25T19:44:22.216Z,59.40
2022-11-25T19:47:14.448Z,57.73
2022-11-25T19:49:37.300Z,64.13
2022-11-25T19:52:04.490Z,58.13
2022-11-25T19:54:31.514Z,64.27
2022-11-25T19:56:58.581Z,67.50
2022-11-25T19:59:25.538Z,67.27
2022-11-25T20:01:52.679Z,65.20
2022-11-25T20:04:21.000Z,67.90
2022-11-25T20:06:49.447Z,70.30
2022-11-25T20:09:16.471Z,68.07
2022-11-25T20:11:43.865Z,69.10
2022-11-25T20:14:12.296Z,61.73
2022-11-25T20:16:41.295Z,64.27
2022-11-25T20:19:16.556Z,64.90
2022-11-25T20:21:44.555Z,61.77
2022-11-25T20:24:18.737Z,64.43
2022-11-25T20:26:48.578Z,69.57
2022-11-25T20:29:18.741Z,65.07
2022-11-25T20:31:46.756Z,65.90
2022-11-25T20:34:14.015Z,65.87
2022-11-25T20:36:43.074Z,72.67
2022-11-25T20:39:18.237Z,72.90
2022-11-25T20:41:52.753Z,72.57
2022-11-25T20:44:20.330Z,75.30
2022-11-25T20:46:47.582Z,77.17
2022-11-25T20:49:29.438Z,76.00
2022-11-25T20:51:57.443Z,76.77
2022-11-25T20:54:24.769Z,76.53
2022-11-25T20:56:51.898Z,74.73
2022-11-25T20:59:22.192Z,75.70
2022-11-25T21:01:54.536Z,76.83
2022-11-25T21:04:21.748Z,79.33
2022-11-25T21:06:48.830Z,74.57
2022-11-25T21:09:23.418Z,78.17
2022-11-25T21:11:50.888Z,82.47
2022-11-25T21:14:19.864Z,83.30
2022-11-25T21:16:47.140Z,77.97
2022-11-25T21:19:14.347Z,84.83
2022-11-25T21:21:45.016Z,80.13
2022-11-25T21:24:36.888Z,80.10
2022-11-25T21:27:13.979Z,79.10
2022-11-25T21:29:43.155Z,77.90
2022-11-25T21:32:23.563Z,79.03
2022-11-25T21:34:51.277Z,80.40
2022-11-25T21:37:32.587Z,75.17
2022-11-25T21:40:00.209Z,70.93
2022-11-25T21:42:29.708Z,75.23
2022-11-25T21:44:56.867Z,72.80
2022-11-25T21:47:26.231Z,72.97
2022-11-25T21:49:53.290Z,81.83
2022-11-25T21:52:20.328Z,71.20
2022-11-25T21:54:47.695Z,76.53
2022-11-25T21:57:26.144Z,71.87
2022-11-25T21:59:53.258Z,74.90
2022-11-25T22:02:24.021Z,70.57
2022-11-25T22:04:51.643Z,76.80
2022-11-25T22:07:18.871Z,68.00
2022-11-25T22:09:46.678Z,76.93
2022-11-25T22:12:30.827Z,73.40
2022-11-25T22:14:59.633Z,74.13
2022-11-25T22:17:27.038Z,73.97
2022-11-25T22:19:54.419Z,75.07
2022-11-25T22:22:21.377Z,74.37
2022-11-25T22:24:48.443Z,64.13
2022-11-25T22:27:25.875Z,71.83
2022-11-25T22:29:53.213Z,63.47
2022-11-25T22:32:20.194Z,66.03
2022-11-25T22:34:47.289Z,68.43
2022-11-25T22:37:23.022Z,62.47
2022-11-25T22:39:50.336Z,62.10
2022-11-25T22:42:23.334Z,64.67
2022-11-25T22:44:50.859Z,58.50
2022-11-25T22:47:27.809Z,63.33
2022-11-25T22:49:55.794Z,57.43
2022-11-25T22:52:30.511Z,60.80
2022-11-25T22:55:13.905Z,61.13
2022-11-25T22:57:41.208Z,59.57
2022-11-25T23:00:11.146Z,62.90
2022-11-25T23:02:38.262Z,59.57
2022-11-25T23:05:18.347Z,60.70
2022-11-25T23:07:45.501Z,60.30
2022-11-25T23:10:28.624Z,63.37
2022-11-25T23:12:55.900Z,64.90
2022-11-25T23:15:24.627Z,62.70
2022-11-25T23:17:55.071Z,58.50
2022-11-25T23:20:28.062Z,61.17
2022-11-25T23:22:55.155Z,59.33
2022-11-25T23:25:23.283Z,56.97
2022-11-25T23:27:50.630Z,55.20
2022-11-25T23:30:20.307Z,55.80
2022-11-25T23:32:50.265Z,55.30
2022-11-25T23:35:37.787Z,60.17
2022-11-25T23:38:13.908Z,59.57
2022-11-25T23:40:40.862Z,57.43
2022-11-25T23:43:14.194Z,58.80
2022-11-25T23:45:51.705Z,61.80
2022-11-25T23:48:21.230Z,55.43
2022-11-25T23:50:48.779Z,58.00
2022-11-25T23:53:25.022Z,65.03
2022-11-25T23:55:52.465Z,71.57
2022-11-25T23:58:21.192Z,56.27
